馬祖北竿航空站 - ATIS

METAR RCMT 301100Z 05007KT CAVOK 10/02 Q1024 NOSIG RMK A3025(Z)=

站台狀態:Online
最後更新:2023-01-30 23:00:02